Lynch Station, Virginia
Current Conditions -  °F | °C
As of 2:54 AM on Wednesday 22 Oct 2014 (Local Time) from KLYH Reporting Station
Overcast Overcast  
Wind Chill: 46°   Ceiling: 7000
Heat Index: 48°   Visibility: 10mi
Dew Point: 44°   Wind: 5mph
Humidity: 86%   Direction: 310°NW
Pressure: 29.95"   Gusts: NA
Location:  37.15°N, 79.3°W
Report Text: KLYH 220654Z AUTO 31004KT 10SM BKN070 OVC100 09/07 A2995 RMK AO2 RAB43E54 SLP138 P0000 T00890067
Loading
Personal Weather Stations






























Interactive Weather Map
Tropical Storm Tracking
New forecast layout! Learn more

10-Day Weather Forecast

Advertisements
Track Severe Weather on mobile